Terminal Aerodrome Forecast
Issued by NWS Sterling, VA

Current Version | Previous Version | Graphics & Text | Print | Product List | Glossary On
Versions: 1 2 3 4 5 6 7 8 9 10 11 12 13 14 15 16 17 18 19 20 21 22 23
000
FTUS41 KLWX 310500
TAFIAD
TAF
KIAD 310529Z 3106/0112 31014G22KT P6SM FEW250
     FM311600 30011G17KT P6SM FEW250
     FM312200 31006KT P6SM FEW250
     FM010300 VRB03KT P6SM SCT050 BKN250=

USA.gov is the U.S. government's official web portal to all federal, state and local government web resources and services.